Bryson City, NC (28713)

22:12 EDT le 20 octobre 2014 (GMT -0400)
Buckner Branch | Change Station
CLOSE
Current Station
Stations météorologiques personnelles
Location: Bryson City, NC
Altitude: 1900 ft
Stations météo à proximité

Alt. 1900 ft 35.42 °N, 83.48 °W | Updated 8 minutes ago

Partiellement nuageux
Partiellement nuageux
49.3 ° F
Paraît 49 ° F
N
0.0
Vent Variable Vent de Est

Aujourd'hui
Haut(e) -- | Bas -- ° F
--% Risque de précip.
Hier
Haut(e) -- | Bas -- ° F
Precip. -- pouce
7:44 AM 6:52 PM
Lune descendante, 8% visible
Pression 30.06 pouce
Visibilité 1.2 Miles terrestres
Nuages
Refroidissement éolien 49 ° F
Point de rosée 46 ° F
Humidité 90%
Précipitations 0.00 pouce
Profondeur de la couche neigeuse Non disponible.
UV Non disponible.
Pollen 1.60 sur 12
Ozone Bon
PM2.5 Bon
Flu Activity Sporadic
METAR K1A5 210157Z AUTO 00000KT 1 1/4SM BR 08/08 A3006 RMK AO2

More Conditions Fewer Conditions

Pression 30.06 pouce
Visibilité 1.2 Miles terrestres
Nuages
Refroidissement éolien 49 ° F
Point de rosée 46 ° F
Humidité 90%
Précipitations 0.00 pouce
Profondeur de la couche neigeuse Non disponible.
UV Non disponible.
Pollen 1.60 sur 12
Ozone Bon
PM2.5 Bon
Flu Activity Sporadic
METAR K1A5 210157Z AUTO 00000KT 1 1/4SM BR 08/08 A3006 RMK AO2

More Conditions Fewer Conditions

10-Day Weather Forecast

Almanac

Astronomie

Oct. 20, 2014 Lever Coucher
Temps réel 07:44 EDT 18:52 EDT
Crépuscule civil 07:18 EDT 19:18 EDT
Crépuscule nautique 06:49 EDT 19:47 EDT
Crépuscule astronomique 06:19 EDT 20:17 EDT
Lune 04:38 EDT (10/20) 17:08 EDT (10/20)
Durée de lumière visible 11h 59m
Longueur du jour
11h 07m
Tomorrow will be 2m 5s shorter.
Lune descendante, 8% of the Moon is Illuminated
Aujourd'hui
Lune descendante
Oct 23
Nouveau
Oct 30
Premier quartier
Nov 6
Pleine lune
Nov 14
Dernier quartier

Extrêmes aujourd'hui

State Highs State Lows

Community

WunderPhotos

Upload Photos

1,763,572 Photos téléchargées !

Nearby

Qualité de l'air

  Qualité de l'air Indice de la qualité de l'air Polluant
Hier Bon
OZONE
Hier Bon
PM2.5
Actuel Bon
PM2.5
Actuel Bon
OZONE
lundi Bon
PM2.5
lundi Bon
OZONE
mardi Bon
PM2.5
mardi Bon
OZONE
mercredi Bon
PM2.5
mercredi Bon
OZONE
jeudi Bon
PM2.5
jeudi Bon
OZONE

Épaisseur de neige

Station Depth Altitude
Pas de nouvelles chutes de neige

Activité sismique

Ville Distance Mag. Time & Date
No recent earthquake activity has been reported nearby.
Minimum magnitude displayed is 2.5.

Températures des eaux côtières

Lieu Température
Aucun rapport de station

Stations météo à proximité